Time;durP1;ratioP1;P1;durP2;ratioP2;P2;SDS_P1;SDS_P2;PMS_P1;PMS_P2;Temp;Humidity;BMP_temperature;BMP_pressure;BME280_temperature;BME280_humidity;BME280_pressure;Samples;Min_cycle;Max_cycle;Signal;HPM_P1;HPM_P2
2023/05/30 00:02:05;;;;;;;10.20;1.75;;;;;;;11.81;58.15;102549.97;5032093;28;20032;-78
2023/05/30 00:04:30;;;;;;;6.07;1.30;;;;;;;11.79;58.21;102546.50;5031539;28;20042;-78
2023/05/30 00:06:56;;;;;;;9.63;1.33;;;;;;;11.75;58.80;102544.78;5032207;28;20025;-78
2023/05/30 00:09:22;;;;;;;6.57;1.50;;;;;;;11.72;59.05;102544.78;5032669;28;20026;-78
2023/05/30 00:11:48;;;;;;;5.00;1.40;;;;;;;11.67;59.12;102539.59;5031871;28;20033;-78
2023/05/30 00:14:20;;;;;;;5.90;1.30;;;;;;;11.65;59.58;102539.59;5029365;28;20021;-78
2023/05/30 00:16:45;;;;;;;;;;;;;;;11.69;54.97;102550.91;5030962;28;20195;-78
2023/05/30 00:19:10;;;;;;;5.43;1.35;;;;;;;11.62;59.48;102546.56;5032056;28;20352;-78
2023/05/30 00:21:36;;;;;;;6.57;1.27;;;;;;;11.57;59.76;102543.97;5031474;28;20075;-78
2023/05/30 00:24:02;;;;;;;4.63;1.20;;;;;;;11.53;59.76;102543.09;5031433;28;20184;-78
2023/05/30 00:26:27;;;;;;;5.47;1.42;;;;;;;11.53;60.34;102555.28;5033964;28;20068;-78
2023/05/30 00:28:52;;;;;;;5.43;1.27;;;;;;;11.50;60.45;102555.28;5031630;28;20481;-78
2023/05/30 00:31:18;;;;;;;7.18;1.45;;;;;;;11.47;60.23;102555.28;5031853;28;20029;-78
2023/05/30 00:33:43;;;;;;;6.43;1.35;;;;;;;11.45;60.85;102551.78;5031496;28;20029;-78
2023/05/30 00:36:09;;;;;;;7.13;1.40;;;;;;;11.44;60.86;102550.09;5031723;28;20116;-78
2023/05/30 00:38:35;;;;;;;8.95;1.50;;;;;;;11.41;61.16;102552.69;5031631;28;20112;-78
2023/05/30 00:41:00;;;;;;;6.60;1.75;;;;;;;11.37;61.15;102550.09;5032432;28;20057;-79
2023/05/30 00:43:25;;;;;;;6.45;1.70;;;;;;;11.34;61.30;102544.88;5032223;28;20034;-78
2023/05/30 00:45:53;;;;;;;5.50;1.38;;;;;;;11.30;61.52;102545.75;5030903;28;20033;-78
2023/05/30 00:48:19;;;;;;;6.80;1.45;;;;;;;11.29;61.86;102541.41;5031648;28;20397;-78
2023/05/30 00:50:44;;;;;;;5.85;1.45;;;;;;;11.26;61.89;102551.84;5031441;28;20029;-78
2023/05/30 00:53:10;;;;;;;7.80;1.40;;;;;;;11.23;61.98;102551.84;5030712;28;20042;-78
2023/05/30 00:55:36;;;;;;;6.50;1.70;;;;;;;11.20;62.35;102557.91;5031231;28;20183;-78
2023/05/30 00:58:01;;;;;;;4.72;1.42;;;;;;;11.15;62.28;102551.84;5031324;28;20511;-78
2023/05/30 01:00:27;;;;;;;5.22;1.63;;;;;;;11.11;62.54;102552.72;5032207;28;20031;-78
2023/05/30 01:02:59;;;;;;;5.80;1.65;;;;;;;11.08;62.95;102552.72;5033981;28;20029;-78
2023/05/30 01:05:25;;;;;;;6.63;1.20;;;;;;;11.03;62.88;102557.94;5034363;28;20044;-78
2023/05/30 01:07:51;;;;;;;7.07;1.42;;;;;;;11.01;63.20;102567.47;5035459;28;20156;-78
2023/05/30 01:10:17;;;;;;;6.20;1.20;;;;;;;10.96;63.44;102571.81;5035651;28;20532;-78
2023/05/30 01:13:07;;;;;;;6.85;1.42;;;;;;;10.93;61.30;102566.63;5035189;28;20036;-78
2023/05/30 01:15:41;;;;;;;7.32;1.50;;;;;;;10.90;63.54;102566.63;5034227;28;20036;-78
2023/05/30 01:18:34;;;;;;;9.05;1.58;;;;;;;10.87;61.24;102569.22;5034206;28;20030;-78
2023/05/30 01:21:07;;;;;;;4.53;1.42;;;;;;;10.83;63.70;102570.06;5034025;28;20033;-78
2023/05/30 01:23:47;;;;;;;6.32;1.50;;;;;;;10.78;63.16;102564.84;5032409;28;20112;-78
2023/05/30 01:26:31;;;;;;;6.88;1.50;;;;;;;10.73;62.38;102567.47;5033906;28;20029;-78
2023/05/30 01:29:02;;;;;;;6.47;1.30;;;;;;;10.69;64.33;102563.09;5032710;28;20104;-78
2023/05/30 01:31:28;;;;;;;9.02;1.42;;;;;;;10.66;64.61;102559.66;5032959;28;20037;-78
2023/05/30 01:33:54;;;;;;;5.30;1.30;;;;;;;10.62;64.84;102567.44;5033465;28;20025;-78
2023/05/30 01:36:20;;;;;;;9.23;1.35;;;;;;;10.60;65.11;102561.34;5035125;28;20059;-78
2023/05/30 01:38:45;;;;;;;7.28;1.80;;;;;;;10.59;64.74;102574.38;5035070;28;20029;-78
2023/05/30 01:41:21;;;;;;;6.82;1.80;;;;;;;10.56;64.50;102564.81;5033074;28;20051;-78
2023/05/30 01:44:01;;;;;;;8.55;1.80;;;;;;;10.51;64.01;102573.47;5033045;28;20377;-78
2023/05/30 01:46:33;;;;;;;9.80;2.15;;;;;;;10.46;65.48;102569.13;5032683;28;20344;-78
2023/05/30 01:49:04;;;;;;;9.07;1.73;;;;;;;10.42;65.46;102575.19;5034859;28;20469;-78
2023/05/30 01:51:40;;;;;;;7.82;1.50;;;;;;;10.39;65.81;102567.38;5035445;28;20072;-78
2023/05/30 01:54:07;;;;;;;7.13;1.75;;;;;;;10.36;66.25;102572.53;5033713;28;20045;-78
2023/05/30 01:56:34;;;;;;;4.68;1.48;;;;;;;10.33;66.32;102581.19;5033761;28;20056;-78
2023/05/30 01:59:02;;;;;;;5.15;1.50;;;;;;;10.31;66.58;102582.94;5033404;28;20036;-78
2023/05/30 02:01:29;;;;;;;7.22;1.58;;;;;;;10.29;66.38;102586.38;5030819;28;20079;-78
2023/05/30 02:03:54;;;;;;;7.85;1.67;;;;;;;10.25;66.81;102590.72;5032505;28;20021;-78
2023/05/30 02:06:20;;;;;;;9.13;1.55;;;;;;;10.24;66.85;102588.97;5031245;28;20400;-78
2023/05/30 02:08:45;;;;;;;7.80;1.70;;;;;;;10.23;66.93;102591.59;5028828;28;20380;-78
2023/05/30 02:11:11;;;;;;;8.20;1.70;;;;;;;10.22;66.65;102595.03;5032803;28;20025;-78
2023/05/30 02:13:36;;;;;;;4.90;1.42;;;;;;;10.21;66.76;102593.31;5033888;28;20025;-78
2023/05/30 02:16:02;;;;;;;6.30;1.42;;;;;;;10.17;66.65;102593.28;5033338;28;20029;-78
2023/05/30 02:18:27;;;;;;;9.63;1.70;;;;;;;10.15;67.12;102595.00;5033544;28;20472;-78
2023/05/30 02:20:54;;;;;;;4.90;1.60;;;;;;;10.12;67.01;102596.75;5032862;28;20033;-78
2023/05/30 02:23:19;;;;;;;7.30;1.50;;;;;;;10.06;66.69;102592.38;5032197;28;20017;-78
2023/05/30 02:25:45;;;;;;;8.15;1.45;;;;;;;10.04;67.20;102601.91;5035517;28;20112;-78
2023/05/30 02:28:10;;;;;;;8.32;1.50;;;;;;;9.99;67.58;102601.00;5033657;28;20021;-78
2023/05/30 02:30:35;;;;;;;4.38;1.40;;;;;;;9.98;67.24;102599.25;5033220;28;20489;-78
2023/05/30 02:33:01;;;;;;;8.38;2.00;;;;;;;9.98;67.21;102596.66;5032999;28;20022;-78
2023/05/30 02:35:26;;;;;;;5.43;1.80;;;;;;;9.96;67.23;102591.47;5033677;28;20033;-78
2023/05/30 02:37:51;;;;;;;7.82;1.67;;;;;;;9.96;67.25;102593.19;5033485;28;20443;-78
2023/05/30 02:40:16;;;;;;;9.55;1.60;;;;;;;9.94;67.50;102594.91;5032715;28;20030;-78
2023/05/30 02:42:42;;;;;;;8.27;1.90;;;;;;;9.91;67.76;102590.56;5034158;28;20034;-78
2023/05/30 02:45:07;;;;;;;7.07;1.70;;;;;;;9.86;67.69;102593.16;5033281;28;20028;-78
2023/05/30 02:47:33;;;;;;;9.45;2.45;;;;;;;9.82;67.61;102591.38;5033463;28;20029;-78
2023/05/30 02:49:58;;;;;;;6.00;1.80;;;;;;;9.80;67.79;102590.50;5033386;28;20053;-78
2023/05/30 02:52:23;;;;;;;6.05;1.70;;;;;;;9.78;67.95;102599.16;5032703;28;20045;-78
2023/05/30 02:54:48;;;;;;;5.45;1.70;;;;;;;9.76;67.90;102601.72;5033085;28;20507;-78
2023/05/30 02:57:15;;;;;;;7.85;1.67;;;;;;;9.75;68.19;102594.78;5032992;28;20040;-78
2023/05/30 02:59:40;;;;;;;6.80;1.60;;;;;;;9.74;68.51;102594.78;5028256;28;20060;-78
2023/05/30 03:02:05;;;;;;;5.72;1.50;;;;;;;9.74;68.74;102597.41;5028672;28;20059;-78
2023/05/30 03:04:31;;;;;;;10.70;1.88;;;;;;;9.73;68.72;102596.53;5029643;28;20064;-78
2023/05/30 03:06:56;;;;;;;8.80;1.98;;;;;;;9.74;68.77;102593.03;5028883;28;20030;-78
2023/05/30 03:09:21;;;;;;;7.90;1.85;;;;;;;9.73;69.09;102596.53;5027327;28;20408;-78
2023/05/30 03:11:47;;;;;;;10.13;1.83;;;;;;;9.75;68.96;102600.00;5028644;28;20079;-78
2023/05/30 03:14:12;;;;;;;9.65;1.90;;;;;;;9.76;69.01;102593.94;5028922;28;20500;-78
2023/05/30 03:16:43;;;;;;;6.63;1.88;;;;;;;9.77;69.40;102597.41;5027938;28;20033;-78
2023/05/30 03:19:08;;;;;;;8.53;2.07;;;;;;;9.77;69.42;102597.41;5030317;28;20087;-78
2023/05/30 03:21:36;;;;;;;10.68;2.20;;;;;;;9.75;69.92;102600.00;5030048;28;20292;-78
2023/05/30 03:24:02;;;;;;;5.32;1.73;;;;;;;9.75;70.13;102610.38;5031135;28;20028;-78
2023/05/30 03:26:27;;;;;;;5.63;1.70;;;;;;;9.76;70.38;102614.72;5030244;28;20026;-78
2023/05/30 03:28:53;;;;;;;6.35;1.88;;;;;;;9.78;70.04;102606.97;5032667;28;20025;-78
2023/05/30 03:31:18;;;;;;;7.65;2.00;;;;;;;9.77;70.09;102611.28;5031256;28;20035;-78
2023/05/30 03:33:44;;;;;;;4.85;1.60;;;;;;;9.77;69.88;102619.06;5032057;28;20409;-78
2023/05/30 03:36:10;;;;;;;6.72;1.67;;;;;;;9.78;70.20;102618.22;5030743;28;20021;-78
2023/05/30 03:38:37;;;;;;;8.18;2.00;;;;;;;9.79;70.07;102617.34;5029635;28;20033;-78
2023/05/30 03:41:02;;;;;;;6.07;1.75;;;;;;;9.78;70.53;102619.94;5030784;28;20515;-78
2023/05/30 03:43:27;;;;;;;9.32;2.17;;;;;;;9.80;70.20;102624.28;5031025;28;20472;-78
2023/05/30 03:45:53;;;;;;;6.28;2.00;;;;;;;9.84;70.68;102625.16;5029341;28;20175;-78
2023/05/30 03:48:18;;;;;;;6.55;2.10;;;;;;;9.87;70.25;102631.28;5031420;28;20036;-78
2023/05/30 03:50:43;;;;;;;5.85;2.03;;;;;;;9.90;70.71;102634.75;5031880;28;20056;-78
2023/05/30 03:53:08;;;;;;;6.47;1.80;;;;;;;9.90;70.82;102630.41;5029535;28;20038;-78
2023/05/30 03:55:34;;;;;;;7.00;1.92;;;;;;;9.94;70.86;102633.91;5030785;28;20029;-78
2023/05/30 03:57:59;;;;;;;9.38;2.55;;;;;;;9.97;70.86;102632.22;5030762;28;20457;-78
2023/05/30 04:00:25;;;;;;;8.65;1.80;;;;;;;10.00;71.01;102634.78;5030311;28;20453;-78
2023/05/30 04:02:50;;;;;;;7.53;2.05;;;;;;;10.02;70.78;102632.22;5029449;28;20028;-78
2023/05/30 04:05:16;;;;;;;9.40;2.08;;;;;;;10.07;71.01;102622.72;5030087;28;20032;-78
2023/05/30 04:07:41;;;;;;;9.07;1.92;;;;;;;10.10;70.99;102627.06;5031582;28;20033;-78
2023/05/30 04:10:07;;;;;;;6.93;2.05;;;;;;;10.14;70.78;102628.81;5032187;28;20155;-78
2023/05/30 04:12:32;;;;;;;8.77;1.95;;;;;;;10.16;70.53;102627.97;5032095;28;20025;-78
2023/05/30 04:14:58;;;;;;;9.85;2.17;;;;;;;10.23;70.86;102628.00;5031778;28;20052;-78
2023/05/30 04:17:23;;;;;;;6.68;2.00;;;;;;;10.26;70.92;102627.97;5031340;28;20033;-78
2023/05/30 04:19:50;;;;;;;8.65;2.47;;;;;;;10.30;70.64;102629.75;5032028;28;20080;-78
2023/05/30 04:22:15;;;;;;;7.75;1.92;;;;;;;10.32;70.57;102622.81;5032052;28;20078;-78
2023/05/30 04:24:40;;;;;;;8.23;2.35;;;;;;;10.32;70.41;102623.72;5032980;28;20033;-78
2023/05/30 04:27:06;;;;;;;8.35;1.95;;;;;;;10.35;70.28;102630.66;5031222;28;20033;-78
2023/05/30 04:29:32;;;;;;;8.38;2.22;;;;;;;10.37;70.35;102634.13;5031524;28;20466;-78
2023/05/30 04:31:57;;;;;;;6.90;2.10;;;;;;;10.39;70.40;102627.22;5031086;28;20025;-78
2023/05/30 04:34:24;;;;;;;6.97;1.90;;;;;;;10.40;70.58;102631.56;5031604;28;20025;-78
2023/05/30 04:36:53;;;;;;;5.70;2.05;;;;;;;10.41;70.54;102628.09;5030334;28;20037;-78
2023/05/30 04:39:18;;;;;;;7.00;2.20;;;;;;;10.42;70.25;102634.16;5031267;28;20061;-78
2023/05/30 04:41:43;;;;;;;6.18;2.10;;;;;;;10.44;70.48;102638.50;5031926;28;20119;-78
2023/05/30 04:44:09;;;;;;;7.22;2.10;;;;;;;10.47;70.58;102635.91;5031507;28;20385;-78
2023/05/30 04:46:35;;;;;;;7.90;2.30;;;;;;;10.48;70.68;102637.66;5031151;28;20057;-78
2023/05/30 04:49:01;;;;;;;8.75;2.17;;;;;;;10.52;70.11;102627.25;5030293;28;20032;-78
2023/05/30 04:51:27;;;;;;;10.65;2.42;;;;;;;10.52;70.28;102628.13;5031140;28;20029;-78
2023/05/30 04:53:53;;;;;;;6.97;2.10;;;;;;;10.56;70.42;102632.47;5030731;28;20049;-78
2023/05/30 04:56:22;;;;;;;6.90;2.15;;;;;;;10.62;70.25;102624.69;5030087;28;20376;-78
2023/05/30 04:58:48;;;;;;;6.70;2.22;;;;;;;10.66;70.07;102628.16;5030394;28;20028;-78
2023/05/30 05:01:14;;;;;;;9.07;2.40;;;;;;;10.68;69.97;102631.66;5030389;28;20477;-78
2023/05/30 05:03:40;;;;;;;11.02;2.42;;;;;;;10.72;70.08;102623.00;5029894;28;20029;-78
2023/05/30 05:06:07;;;;;;;7.63;2.30;;;;;;;10.75;70.04;102617.81;5029963;28;20029;-78
2023/05/30 05:08:35;;;;;;;8.80;2.40;;;;;;;10.78;69.77;102615.19;5029379;28;20021;-78
2023/05/30 05:11:05;;;;;;;9.40;2.70;;;;;;;10.82;69.92;102621.28;5031003;28;20044;-78
2023/05/30 05:13:31;;;;;;;8.48;2.22;;;;;;;10.86;70.08;102619.53;5027109;28;20076;-78
2023/05/30 05:15:56;;;;;;;8.68;2.40;;;;;;;10.88;70.31;102623.88;5031485;28;20431;-78
2023/05/30 05:18:22;;;;;;;8.18;2.28;;;;;;;10.92;69.93;102619.56;5030712;28;20029;-78
2023/05/30 05:20:48;;;;;;;6.68;2.17;;;;;;;10.93;69.75;102616.09;5030638;28;20032;-78
2023/05/30 05:23:13;;;;;;;8.95;2.83;;;;;;;10.95;70.00;102619.53;5028695;28;20032;-78
2023/05/30 05:25:39;;;;;;;6.20;2.38;;;;;;;10.99;70.32;102621.28;5029478;28;20092;-78
2023/05/30 05:28:05;;;;;;;6.70;2.63;;;;;;;11.02;69.35;102621.31;5029359;28;20025;-78
2023/05/30 05:30:30;;;;;;;8.88;3.08;;;;;;;11.04;69.32;102624.78;5029196;28;20503;-78
2023/05/30 05:32:55;;;;;;;7.13;2.67;;;;;;;11.07;69.46;102629.13;5031148;28;20029;-78
2023/05/30 05:35:21;;;;;;;7.40;2.80;;;;;;;11.06;68.81;102630.88;5030358;28;20033;-78
2023/05/30 05:37:47;;;;;;;10.20;2.80;;;;;;;11.07;68.89;102631.72;5029623;28;20077;-78
2023/05/30 05:40:13;;;;;;;7.47;2.42;;;;;;;11.11;68.52;102630.84;5032483;28;20044;-78
2023/05/30 05:42:38;;;;;;;7.15;2.63;;;;;;;11.15;68.18;102629.13;5029144;28;20021;-78
2023/05/30 05:45:04;;;;;;;8.93;2.63;;;;;;;11.20;68.11;102636.06;5029229;28;20033;-78
2023/05/30 05:47:30;;;;;;;7.47;2.78;;;;;;;11.24;68.53;102630.00;5030785;28;20025;-78
2023/05/30 05:49:55;;;;;;;6.95;2.80;;;;;;;11.30;67.91;102634.31;5034264;28;20075;-78
2023/05/30 05:52:20;;;;;;;7.53;2.67;;;;;;;11.32;67.19;102635.19;5032303;28;20131;-77
2023/05/30 05:54:46;;;;;;;9.32;2.40;;;;;;;11.33;66.43;102633.47;5033781;28;20030;-78
2023/05/30 05:57:11;;;;;;;5.63;2.38;;;;;;;11.34;66.84;102643.03;5032156;28;20373;-78
2023/05/30 05:59:36;;;;;;;8.18;2.65;;;;;;;11.33;66.37;102630.88;5034409;28;20048;-77
2023/05/30 06:02:02;;;;;;;5.78;2.30;;;;;;;11.32;66.74;102632.59;5033936;28;20096;-78
2023/05/30 06:04:27;;;;;;;8.48;2.85;;;;;;;11.32;66.40;102635.19;5031756;28;20036;-78
2023/05/30 06:06:53;;;;;;;5.82;2.53;;;;;;;11.35;66.28;102643.03;5033552;28;20507;-78
2023/05/30 06:09:18;;;;;;;7.78;2.70;;;;;;;11.36;66.18;102642.16;5031345;28;20484;-78
2023/05/30 06:11:43;;;;;;;6.80;2.70;;;;;;;11.42;66.75;102637.81;5031446;28;20052;-78
2023/05/30 06:14:08;;;;;;;7.22;2.45;;;;;;;11.49;66.95;102647.34;5030773;28;20472;-78
2023/05/30 06:16:34;;;;;;;9.82;2.80;;;;;;;11.51;65.60;102638.69;5031595;28;20037;-78
2023/05/30 06:18:59;;;;;;;8.00;2.58;;;;;;;11.55;65.44;102642.16;5031403;28;20099;-79
2023/05/30 06:21:25;;;;;;;7.15;2.35;;;;;;;11.57;65.94;102640.41;5033030;28;20060;-78
2023/05/30 06:23:50;;;;;;;7.97;2.53;;;;;;;11.60;65.44;102640.41;5031904;28;20051;-79
2023/05/30 06:26:15;;;;;;;5.97;2.42;;;;;;;11.61;65.07;102638.66;5032458;28;20499;-78
2023/05/30 06:28:40;;;;;;;6.63;2.50;;;;;;;11.60;65.38;102640.41;5031073;28;20036;-78
2023/05/30 06:31:06;;;;;;;7.82;2.67;;;;;;;11.63;64.87;102648.22;5027074;28;20415;-77
2023/05/30 06:33:31;;;;;;;7.50;2.63;;;;;;;11.66;65.13;102645.59;5031211;28;20052;-78
2023/05/30 06:35:56;;;;;;;6.90;2.70;;;;;;;11.69;64.73;102645.59;5030970;28;20053;-78
2023/05/30 06:38:23;;;;;;;9.73;2.58;;;;;;;11.73;64.99;102640.41;5026057;28;20508;-78
2023/05/30 06:40:48;;;;;;;6.82;2.80;;;;;;;11.77;64.85;102643.00;5028754;28;20072;-78
2023/05/30 06:43:13;;;;;;;6.28;2.72;;;;;;;11.82;65.16;102642.97;5030365;28;20051;-78
2023/05/30 06:45:39;;;;;;;5.72;2.80;;;;;;;11.87;64.77;102649.06;5030852;28;20025;-78
2023/05/30 06:48:04;;;;;;;8.60;2.97;;;;;;;11.92;64.72;102646.44;5031172;28;20030;-79
2023/05/30 06:50:29;;;;;;;7.65;3.00;;;;;;;11.94;64.29;102645.56;5032615;28;20017;-78
2023/05/30 06:52:55;;;;;;;6.63;2.80;;;;;;;11.97;64.21;102642.09;5029778;28;20057;-77
2023/05/30 06:55:20;;;;;;;8.15;3.40;;;;;;;11.99;64.15;102653.41;5028528;28;20033;-78
2023/05/30 06:57:46;;;;;;;5.13;2.92;;;;;;;12.02;64.25;102652.53;5031153;28;20037;-78
2023/05/30 07:00:12;;;;;;;8.57;2.90;;;;;;;12.02;64.31;102655.13;5028051;28;20100;-79
2023/05/30 07:02:37;;;;;;;6.90;2.63;;;;;;;12.05;63.84;102652.53;5030112;28;20468;-79
2023/05/30 07:05:03;;;;;;;7.35;2.90;;;;;;;12.08;63.77;102657.75;5024967;28;20044;-77
2023/05/30 07:07:28;;;;;;;6.38;3.38;;;;;;;12.12;64.86;102660.34;5027493;28;20083;-77
2023/05/30 07:09:53;;;;;;;8.75;3.00;;;;;;;12.17;63.54;102652.47;5027136;28;20530;-78
2023/05/30 07:12:19;;;;;;;5.97;2.92;;;;;;;12.22;63.81;102655.06;5028215;28;20040;-77
2023/05/30 07:14:44;;;;;;;8.30;3.10;;;;;;;12.27;65.04;102658.53;5031375;28;20055;-78
2023/05/30 07:17:10;;;;;;;8.07;3.20;;;;;;;12.31;64.61;102657.66;5028500;28;20124;-77
2023/05/30 07:19:35;;;;;;;4.95;3.00;;;;;;;12.36;63.41;102660.25;5025246;28;20063;-77
2023/05/30 07:22:00;;;;;;;6.82;2.85;;;;;;;12.41;63.01;102666.31;5027944;28;20040;-77
2023/05/30 07:24:26;;;;;;;9.65;3.17;;;;;;;12.47;63.61;102663.66;5032311;28;20033;-77
2023/05/30 07:26:51;;;;;;;6.75;2.90;;;;;;;12.54;63.12;102670.63;5032487;28;20029;-77
2023/05/30 07:29:17;;;;;;;7.65;2.85;;;;;;;12.56;62.14;102660.16;5031750;28;20322;-77
2023/05/30 07:31:43;;;;;;;6.38;2.80;;;;;;;12.59;61.62;102665.38;5031407;28;20111;-77
2023/05/30 07:34:08;;;;;;;9.73;2.92;;;;;;;12.59;62.33;102666.25;5030917;28;20427;-77
2023/05/30 07:36:33;;;;;;;6.55;3.00;;;;;;;12.65;62.33;102669.69;5031291;28;20068;-77
2023/05/30 07:38:58;;;;;;;6.38;2.70;;;;;;;12.68;62.21;102670.56;5031419;28;20033;-77
2023/05/30 07:41:24;;;;;;;7.63;3.13;;;;;;;12.72;61.73;102668.78;5030990;28;20435;-77
2023/05/30 07:43:49;;;;;;;7.93;2.92;;;;;;;12.74;63.01;102673.13;5031038;28;20024;-77
2023/05/30 07:46:15;;;;;;;5.25;2.78;;;;;;;12.79;62.68;102675.72;5031179;28;20040;-77
2023/05/30 07:48:40;;;;;;;6.25;2.80;;;;;;;12.84;61.19;102675.69;5031201;28;20040;-77
2023/05/30 07:51:08;;;;;;;7.63;2.80;;;;;;;12.86;60.72;102671.34;5062338;28;20116;-77
2023/05/30 07:53:34;;;;;;;7.30;2.85;;;;;;;12.90;61.31;102665.19;5030366;28;20489;-77
2023/05/30 07:55:59;;;;;;;6.55;2.88;;;;;;;12.99;61.65;102669.50;5029640;28;20031;-77
2023/05/30 07:58:24;;;;;;;4.95;2.50;;;;;;;13.05;60.54;102669.47;5026942;28;20033;-77
2023/05/30 08:00:50;;;;;;;5.68;2.97;;;;;;;13.12;61.93;102663.31;5021504;28;20045;-77
2023/05/30 08:03:15;;;;;;;9.25;3.20;;;;;;;13.24;60.37;102666.72;5024493;28;20025;-77
2023/05/30 08:05:40;;;;;;;6.90;3.13;;;;;;;13.33;60.15;102661.41;5025005;28;20041;-78
2023/05/30 08:08:07;;;;;;;7.93;3.15;;;;;;;13.42;60.46;102664.00;5023137;28;20556;-77
2023/05/30 08:10:33;;;;;;;6.60;3.20;;;;;;;13.51;61.38;102663.91;5022702;28;20032;-77
2023/05/30 08:12:58;;;;;;;8.10;3.22;;;;;;;13.53;60.43;102656.06;5023618;28;20477;-77
2023/05/30 08:15:23;;;;;;;7.53;3.58;;;;;;;13.53;60.21;102644.72;5025648;28;20078;-77
2023/05/30 08:17:49;;;;;;;7.07;3.05;;;;;;;13.46;60.32;102655.25;5024584;28;20026;-78
2023/05/30 08:20:16;;;;;;;8.75;3.50;;;;;;;13.41;59.44;102646.56;5025687;28;20132;-78
2023/05/30 08:22:41;;;;;;;7.60;3.13;;;;;;;13.35;60.30;102655.31;5025191;28;20021;-77
2023/05/30 08:25:08;;;;;;;8.50;3.40;;;;;;;13.29;60.48;102652.72;5024827;28;20021;-78
2023/05/30 08:27:34;;;;;;;8.20;3.40;;;;;;;13.28;61.47;102650.13;5026136;28;20033;-78
2023/05/30 08:29:59;;;;;;;5.80;3.20;;;;;;;13.36;62.82;102648.31;5025337;28;20048;-77
2023/05/30 08:32:28;;;;;;;8.73;3.75;;;;;;;13.45;59.97;102653.50;5023133;28;20029;-78
2023/05/30 08:34:53;;;;;;;8.80;3.53;;;;;;;13.53;60.01;102644.72;5030151;28;20445;-77
2023/05/30 08:37:19;;;;;;;7.05;3.50;;;;;;;13.61;60.87;102653.38;5027266;28;20036;-78
2023/05/30 08:39:44;;;;;;;6.82;3.35;;;;;;;13.67;59.64;102648.06;5026581;28;20026;-78
2023/05/30 08:42:12;;;;;;;8.52;3.63;;;;;;;13.73;59.08;102647.16;5025972;28;20026;-78
2023/05/30 08:44:39;;;;;;;6.90;3.20;;;;;;;13.79;59.13;102642.72;5021915;28;20036;-78
2023/05/30 08:47:08;;;;;;;6.70;3.17;;;;;;;13.87;59.16;102641.78;5024912;28;20025;-78
2023/05/30 08:49:36;;;;;;;9.35;3.85;;;;;;;13.90;59.58;102633.91;5027290;28;20040;-78
2023/05/30 08:52:03;;;;;;;7.72;3.50;;;;;;;13.94;58.83;102635.59;5023215;28;20025;-78
2023/05/30 08:54:36;;;;;;;8.30;3.45;;;;;;;13.98;59.38;102632.06;5025431;28;20080;-78
2023/05/30 08:57:06;;;;;;;9.18;3.50;;;;;;;14.00;58.93;102645.13;5028455;28;20160;-78
2023/05/30 08:59:32;;;;;;;6.82;3.45;;;;;;;14.00;58.84;102637.28;5024376;28;20117;-78
2023/05/30 09:01:58;;;;;;;7.20;3.55;;;;;;;14.02;59.85;102628.50;5027161;28;20112;-78
2023/05/30 09:04:24;;;;;;;6.35;3.42;;;;;;;14.03;58.33;102619.78;5027528;28;20104;-78
2023/05/30 09:06:50;;;;;;;13.50;3.90;;;;;;;14.03;58.39;102625.00;5028956;28;20509;-78
2023/05/30 09:09:17;;;;;;;7.85;3.50;;;;;;;14.03;60.18;102625.00;5029144;28;20037;-77
2023/05/30 09:11:42;;;;;;;6.38;3.50;;;;;;;14.09;59.86;102627.56;5028934;28;20033;-78
2023/05/30 09:14:08;;;;;;;9.20;3.40;;;;;;;14.14;58.95;102622.28;5027600;28;20033;-78
2023/05/30 09:16:33;;;;;;;6.53;3.17;;;;;;;14.18;58.72;102621.34;5029717;28;20542;-77
2023/05/30 09:18:58;;;;;;;7.72;3.95;;;;;;;14.22;58.11;102627.41;5029017;28;20703;-77
2023/05/30 09:21:24;;;;;;;7.38;3.65;;;;;;;14.23;57.67;102626.53;5028048;28;20441;-77
2023/05/30 09:23:50;;;;;;;9.57;3.97;;;;;;;14.22;57.80;102614.31;5028224;28;20029;-78
2023/05/30 09:26:15;;;;;;;7.72;3.80;;;;;;;14.21;58.60;102613.47;5023940;28;20025;-77
2023/05/30 09:28:44;;;;;;;6.57;3.92;;;;;;;14.22;57.83;102612.59;5027876;28;20030;-77
2023/05/30 09:31:10;;;;;;;7.53;3.50;;;;;;;14.27;59.07;102615.16;5028822;28;20025;-77
2023/05/30 09:33:46;;;;;;;7.00;3.90;;;;;;;14.30;58.52;102607.25;5028270;28;20033;-77
2023/05/30 09:36:19;;;;;;;11.48;4.28;;;;;;;14.31;58.20;102606.38;5028446;28;20037;-78
2023/05/30 09:38:55;;;;;;;7.70;4.10;;;;;;;14.34;58.62;102606.34;5027947;28;20053;-78
2023/05/30 09:41:22;;;;;;;8.52;4.07;;;;;;;14.39;59.04;102609.75;5026088;28;20120;-77
2023/05/30 09:43:52;;;;;;;7.95;4.20;;;;;;;14.44;58.48;102603.56;5029012;28;20063;-79
2023/05/30 09:46:19;;;;;;;7.45;4.07;;;;;;;14.41;57.33;102597.50;5028773;28;20120;-78
2023/05/30 09:48:45;;;;;;;8.63;4.20;;;;;;;14.44;57.84;102604.44;5027065;28;20034;-77
2023/05/30 09:51:11;;;;;;;11.98;4.00;;;;;;;14.50;59.40;102590.41;5028802;28;20044;-77
2023/05/30 09:53:36;;;;;;;7.85;3.72;;;;;;;14.55;58.54;102592.06;5028361;28;20049;-77
2023/05/30 09:56:02;;;;;;;7.45;4.30;;;;;;;14.61;57.08;102591.13;5061233;28;20641;-78
2023/05/30 09:58:28;;;;;;;7.22;3.85;;;;;;;14.65;57.00;102590.19;5028011;28;20025;-78
2023/05/30 10:00:55;;;;;;;8.57;3.70;;;;;;;14.68;57.04;102587.56;5025783;28;20428;-77
2023/05/30 10:03:39;;;;;;;7.03;3.90;;;;;;;14.77;58.43;102594.41;5027663;28;20022;-78
2023/05/30 10:06:12;;;;;;;9.23;3.90;;;;;;;14.81;57.05;102592.59;5028881;28;20025;-77
2023/05/30 10:08:38;;;;;;;6.85;3.65;;;;;;;14.85;57.10;102589.06;5027622;28;20096;-80
2023/05/30 10:11:04;;;;;;;6.10;3.50;;;;;;;14.89;58.09;102585.47;5031270;28;20061;-78
2023/05/30 10:13:29;;;;;;;6.53;3.50;;;;;;;14.92;56.21;102590.66;5028883;28;20152;-77
2023/05/30 10:15:55;;;;;;;9.40;4.38;;;;;;;14.91;56.90;102578.47;5030285;28;20040;-77
2023/05/30 10:18:22;;;;;;;7.80;3.35;;;;;;;14.95;58.22;102585.38;5030320;28;20056;-78
2023/05/30 10:20:48;;;;;;;8.82;3.78;;;;;;;14.98;57.13;102574.84;5027002;28;20021;-78
2023/05/30 10:23:15;;;;;;;10.40;4.57;;;;;;;15.03;57.08;102577.41;5028449;28;20034;-77
2023/05/30 10:25:48;;;;;;;8.90;4.35;;;;;;;15.08;56.65;102587.78;5024436;28;20030;-79
2023/05/30 10:28:21;;;;;;;8.65;3.83;;;;;;;15.12;58.69;102587.72;5025509;28;20476;-78
2023/05/30 10:30:47;;;;;;;6.95;3.55;;;;;;;15.13;56.53;102573.72;5027461;28;20029;-77
2023/05/30 10:33:14;;;;;;;9.38;4.43;;;;;;;15.15;57.62;102574.56;5028461;28;20033;-79
2023/05/30 10:35:39;;;;;;;7.18;4.00;;;;;;;15.24;56.64;102583.16;5029615;28;20083;-77
2023/05/30 10:38:11;;;;;;;8.35;3.67;;;;;;;15.29;56.77;102573.44;5027522;28;20026;-78
2023/05/30 10:41:08;;;;;;;9.20;4.00;;;;;;;15.35;57.62;102569.88;5026249;28;20056;-78
2023/05/30 10:43:46;;;;;;;7.55;3.88;;;;;;;15.37;56.62;102565.47;5005966;28;20136;-78
2023/05/30 10:46:40;;;;;;;8.07;3.65;;;;;;;15.40;58.13;102565.38;5027394;28;20449;-79
2023/05/30 10:49:14;;;;;;;7.13;3.95;;;;;;;15.45;58.80;102561.81;5026033;28;20072;-78
2023/05/30 10:52:05;;;;;;;9.27;3.83;;;;;;;15.55;56.51;102570.34;5028896;28;20100;-78
2023/05/30 10:54:36;;;;;;;10.38;4.07;;;;;;;15.56;56.40;102553.72;5026393;28;20520;-77
2023/05/30 10:57:23;;;;;;;8.00;3.55;;;;;;;15.60;56.18;102567.66;5026715;28;20036;-77
2023/05/30 10:59:55;;;;;;;8.25;4.15;;;;;;;15.61;54.16;102567.63;5025720;28;20252;-79
2023/05/30 11:02:38;;;;;;;10.15;3.90;;;;;;;15.65;55.64;102554.44;5025478;28;20060;-78
2023/05/30 11:05:10;;;;;;;7.60;3.83;;;;;;;15.68;55.53;102554.38;5025286;28;20477;-79
2023/05/30 11:07:40;;;;;;;8.15;3.78;;;;;;;15.72;54.21;102556.91;5026496;28;20029;-79
2023/05/30 11:10:08;;;;;;;11.98;4.35;;;;;;;15.75;54.90;102550.72;5027352;28;20535;-78
2023/05/30 11:12:40;;;;;;;12.75;4.40;;;;;;;15.78;54.56;102554.19;5027733;28;20033;-78
2023/05/30 11:15:06;;;;;;;8.30;4.30;;;;;;;15.81;55.68;102550.63;5027631;28;20022;-78
2023/05/30 11:17:37;;;;;;;8.52;4.60;;;;;;;15.82;54.29;102535.72;5027253;28;20541;-78
2023/05/30 11:20:14;;;;;;;10.15;4.55;;;;;;;15.83;54.57;102538.34;5027048;28;20040;-79
2023/05/30 11:22:40;;;;;;;7.72;4.47;;;;;;;15.86;54.20;102542.69;5027933;28;20043;-79
2023/05/30 11:25:26;;;;;;;10.02;4.32;;;;;;;15.89;55.15;102538.22;5028169;28;20034;-78
2023/05/30 11:28:03;;;;;;;8.07;4.15;;;;;;;15.93;54.36;102534.63;5027421;28;20072;-79